Time;durP1;ratioP1;P1;durP2;ratioP2;P2;SDS_P1;SDS_P2;PMS_P1;PMS_P2;Temp;Humidity;BMP_temperature;BMP_pressure;BME280_temperature;BME280_humidity;BME280_pressure;Samples;Min_cycle;Max_cycle;Signal;HPM_P1;HPM_P2
2023/12/16 00:01:00;;;;;;;9.18;2.05;;;;;;;;;;4982227;28;20770;-74
2023/12/16 00:03:29;;;;;;;10.00;2.35;;;;;;;;;;4981196;28;20050;-74
2023/12/16 00:05:55;;;;;;;12.07;2.03;;;;;;;;;;4983434;28;20508;-73
2023/12/16 00:08:22;;;;;;;7.07;1.90;;;;;;;;;;4981759;28;20573;-74
2023/12/16 00:10:48;;;;;;;7.60;2.05;;;;;;;;;;4985290;28;20156;-73
2023/12/16 00:13:14;;;;;;;4.70;2.03;;;;;;;;;;4985282;28;20401;-74
2023/12/16 00:15:40;;;;;;;7.13;1.98;;;;;;;;;;4984512;28;20127;-74
2023/12/16 00:18:06;;;;;;;11.80;2.33;;;;;;;;;;4985142;28;20125;-73
2023/12/16 00:20:32;;;;;;;8.02;2.33;;;;;;;;;;4984695;28;20489;-74
2023/12/16 00:22:58;;;;;;;7.65;1.77;;;;;;;;;;4977944;28;20123;-74
2023/12/16 00:25:24;;;;;;;11.48;2.35;;;;;;;;;;4984326;28;20054;-74
2023/12/16 00:27:50;;;;;;;8.50;2.10;;;;;;;;;;4965612;28;20046;-73
2023/12/16 00:30:16;;;;;;;5.88;2.03;;;;;;;;;;4980674;28;20650;-74
2023/12/16 00:32:43;;;;;;;13.60;2.35;;;;;;;;;;4984163;28;20037;-74
2023/12/16 00:35:09;;;;;;;9.73;2.13;;;;;;;;;;4984646;28;20052;-74
2023/12/16 00:37:35;;;;;;;4.32;1.85;;;;;;;;;;4984840;28;20041;-74
2023/12/16 00:40:02;;;;;;;9.05;2.60;;;;;;;;;;4984556;28;20168;-73
2023/12/16 00:42:29;;;;;;;10.43;2.10;;;;;;;;;;4984775;28;20054;-74
2023/12/16 00:44:57;;;;;;;11.05;3.10;;;7.50;99.90;;;;;;4984555;28;20056;-73
2023/12/16 00:47:23;;;;;;;7.53;2.88;;;;;;;;;;4984469;28;20050;-73
2023/12/16 00:49:49;;;;;;;4.97;2.38;;;;;;;;;;4985997;28;20054;-74
2023/12/16 00:52:15;;;;;;;8.60;3.25;;;;;;;;;;4988102;28;20046;-74
2023/12/16 00:54:41;;;;;;;8.20;2.50;;;;;;;;;;4988178;28;20065;-74
2023/12/16 00:57:07;;;;;;;7.47;2.65;;;;;;;;;;4987766;28;20042;-74
2023/12/16 00:59:33;;;;;;;11.25;2.78;;;;;;;;;;4988076;28;21403;-74
2023/12/16 01:01:59;;;;;;;12.85;2.92;;;;;;;;;;4987632;28;20050;-74
2023/12/16 01:04:25;;;;;;;10.88;2.55;;;;;;;;;;4970839;28;20128;-74
2023/12/16 01:06:51;;;;;;;10.82;2.92;;;;;;;;;;4987716;28;20053;-73
2023/12/16 01:09:17;;;;;;;11.70;2.88;;;;;;;;;;4985127;28;20043;-74
2023/12/16 01:11:44;;;;;;;6.35;2.78;;;;;;;;;;4983465;28;20491;-74
2023/12/16 01:14:10;;;;;;;7.78;2.38;;;;;;;;;;4981183;28;20062;-74
2023/12/16 01:16:36;;;;;;;7.32;2.50;;;;;;;;;;4988239;28;20103;-74
2023/12/16 01:19:02;;;;;;;7.35;2.75;;;;;;;;;;4987405;28;20504;-74
2023/12/16 01:21:28;;;;;;;11.80;2.67;;;;;;;;;;4987765;28;20627;-73
2023/12/16 01:23:54;;;;;;;14.10;3.50;;;;;;;;;;4987593;28;20085;-73
2023/12/16 01:26:20;;;;;;;11.07;2.67;;;;;;;;;;5005112;28;20489;-74
2023/12/16 01:28:46;;;;;;;8.27;2.15;;;;;;;;;;4987406;28;20049;-74
2023/12/16 01:31:12;;;;;;;12.63;3.22;;;;;;;;;;4987295;28;20081;-73
2023/12/16 01:33:38;;;;;;;10.43;2.90;;;;;;;;;;4987551;28;20598;-74
2023/12/16 01:36:04;;;;;;;12.80;2.90;;;;;;;;;;4987689;28;20045;-74
2023/12/16 01:38:31;;;;;;;11.02;3.08;;;;;;;;;;4987445;28;20157;-74
2023/12/16 01:40:57;;;;;;;9.35;2.65;;;;;;;;;;4987497;28;20554;-74
2023/12/16 01:43:23;;;;;;;7.80;2.75;;;;;;;;;;4987031;28;20033;-74
2023/12/16 01:45:53;;;;;;;22.88;3.50;;;;;;;;;;4987295;28;20046;-73
2023/12/16 01:48:19;;;;;;;9.23;2.40;;;;;;;;;;4986767;28;20042;-74
2023/12/16 01:50:45;;;;;;;12.98;3.08;;;;;;;;;;4987039;28;20042;-74
2023/12/16 01:53:11;;;;;;;11.60;2.83;;;;;;;;;;4987564;28;20405;-74
2023/12/16 01:55:37;;;;;;;9.95;3.10;;;;;;;;;;4965322;28;20041;-74
2023/12/16 01:58:04;;;;;;;10.93;2.33;;;;;;;;;;4987405;28;20410;-74
2023/12/16 02:00:30;;;;;;;7.53;2.30;;;;;;;;;;4981092;28;20049;-74
2023/12/16 02:02:56;;;;;;;8.60;3.08;;;;;;;;;;4980024;28;20803;-74
2023/12/16 02:05:22;;;;;;;9.23;2.58;;;;;;;;;;4986634;28;20088;-74
2023/12/16 02:07:48;;;;;;;6.10;2.30;;;;;;;;;;4986839;28;20050;-74
2023/12/16 02:10:14;;;;;;;13.05;2.65;;;;;;;;;;4987462;28;20038;-74
2023/12/16 02:12:40;;;;;;;7.80;2.75;;;;;;;;;;4986920;28;20456;-74
2023/12/16 02:15:06;;;;;;;10.27;2.72;;;;;;;;;;4969991;28;20464;-74
2023/12/16 02:17:32;;;;;;;8.88;2.75;;;;;;;;;;4983182;28;20154;-74
2023/12/16 02:19:58;;;;;;;13.85;3.78;;;;;;;;;;4986669;28;20049;-74
2023/12/16 02:22:25;;;;;;;11.52;2.70;;;;;;;;;;4986484;28;20046;-74
2023/12/16 02:24:51;;;;;;;12.45;2.78;;;;;;;;;;4975934;28;20101;-74
2023/12/16 02:27:18;;;;;;;11.25;2.85;;;;;;;;;;4983462;28;20100;-74
2023/12/16 02:29:44;;;;;;;12.57;3.33;;;;;;;;;;4982176;28;20561;-74
2023/12/16 02:32:10;;;;;;;6.63;2.42;;;;;;;;;;4985723;28;20117;-74
2023/12/16 02:34:36;;;;;;;8.10;2.65;;;;;;;;;;4985553;28;20041;-74
2023/12/16 02:37:05;;;;;;;8.05;2.10;;;;;;;;;;4985973;28;20053;-74
2023/12/16 02:39:32;;;;;;;14.05;3.15;;;;;;;;;;4985874;28;20050;-74
2023/12/16 02:41:58;;;;;;;12.05;2.53;;;;;;;;;;4985383;28;20060;-73
2023/12/16 02:44:24;;;;;;;10.65;2.72;;;;;;;;;;4986217;28;20052;-73
2023/12/16 02:46:50;;;;;;;9.63;2.67;;;;;;;;;;4985670;28;20114;-74
2023/12/16 02:49:16;;;;;;;7.80;2.17;;;;;;;;;;4986202;28;20061;-74
2023/12/16 02:51:42;;;;;;;8.38;2.30;;;;;;;;;;4986146;28;20125;-74
2023/12/16 02:54:08;;;;;;;16.48;2.72;;;;;;;;;;4985598;28;20521;-74
2023/12/16 02:56:34;;;;;;;13.00;2.70;;;;;;;;;;4985330;28;20037;-74
2023/12/16 02:59:01;;;;;;;7.88;2.45;;;;;;;;;;4985647;28;20061;-73
2023/12/16 03:01:27;;;;;;;13.73;2.83;;;;;;;;;;4985270;28;20049;-74
2023/12/16 03:03:53;;;;;;;16.15;3.33;;;;;;;;;;5001251;28;20045;-73
2023/12/16 03:06:19;;;;;;;10.73;2.78;;;;;;;;;;4984216;28;20041;-74
2023/12/16 03:08:45;;;;;;;11.60;2.90;;;;;;;;;;4985397;28;20083;-74
2023/12/16 03:11:12;;;;;;;14.90;3.55;;;;;;;;;;4985884;28;20148;-73
2023/12/16 03:13:38;;;;;;;12.55;2.83;;;;;;;;;;4985064;28;20125;-74
2023/12/16 03:16:04;;;;;;;6.95;2.42;;;;;;;;;;4985386;28;20463;-74
2023/12/16 03:18:30;;;;;;;12.00;2.78;;;;;;;;;;4968052;28;20049;-74
2023/12/16 03:20:56;;;;;;;14.48;2.20;;;;;;;;;;5003253;28;20069;-75
2023/12/16 03:23:22;;;;;;;11.15;3.10;;;;;;;;;;4985638;28;20078;-75
2023/12/16 03:25:48;;;;;;;16.90;3.65;;;;;;;;;;4985253;28;20129;-75
2023/12/16 03:28:14;;;;;;;16.95;3.13;;;;;;;;;;4985317;28;20402;-75
2023/12/16 03:30:41;;;;;;;8.75;2.85;;;;;;;;;;4985846;28;20038;-75
2023/12/16 03:33:10;;;;;;;10.23;2.70;;;;;;;;;;4985141;28;20053;-74
2023/12/16 03:35:36;;;;;;;11.55;2.83;;;;;;;;;;4969509;28;20037;-75
2023/12/16 03:38:02;;;;;;;14.00;2.75;;;;;;;;;;4985720;28;20446;-75
2023/12/16 03:40:29;;;;;;;11.65;3.40;;;;;;;;;;4985326;28;20104;-74
2023/12/16 03:42:56;;;;;;;8.45;2.83;;;;;;;;;;4985322;28;20140;-75
2023/12/16 03:45:22;;;;;;;7.25;3.00;;;;;;;;;;4985237;28;20053;-75
2023/12/16 03:47:48;;;;;;;13.98;3.47;;;;;;;;;;4985509;28;20049;-75
2023/12/16 03:50:14;;;;;;;15.40;3.10;;;;;;;;;;4985027;28;20045;-75
2023/12/16 03:52:40;;;;;;;15.23;3.75;;;;;;;;;;4985318;28;20050;-75
2023/12/16 03:55:07;;;;;;;12.57;3.00;;;;;;;;;;4984899;28;20042;-75
2023/12/16 03:57:33;;;;;;;12.00;3.95;;;;;;;;;;4985170;28;20034;-75
2023/12/16 03:59:59;;;;;;;9.40;3.17;;;;;;;;;;4985430;28;20061;-75
2023/12/16 04:02:25;;;;;;;10.73;3.58;;;;;;;;;;4984873;28;20038;-75
2023/12/16 04:04:51;;;;;;;11.45;2.83;;;;;;;;;;4985139;28;20068;-75
2023/12/16 04:07:17;;;;;;;13.45;4.50;;;;;;;;;;4985217;28;20072;-75
2023/12/16 04:09:44;;;;;;;19.27;4.30;;;;;;;;;;4985028;28;20084;-75
2023/12/16 04:12:10;;;;;;;9.60;2.67;;;;;;;;;;4985474;28;20506;-75
2023/12/16 04:14:38;;;;;;;13.98;3.78;;;6.50;99.90;;;;;;4985156;28;20092;-75
2023/12/16 04:17:04;;;;;;;14.80;3.65;;;;;;;;;;4969186;28;20053;-75
2023/12/16 04:19:30;;;;;;;11.63;3.88;;;;;;;;;;4985444;28;20046;-75
2023/12/16 04:21:56;;;;;;;15.85;3.90;;;;;;;;;;5003024;28;20070;-75
2023/12/16 04:24:22;;;;;;;12.43;3.85;;;;;;;;;;4986496;28;20041;-74
2023/12/16 04:26:48;;;;;;;13.32;3.85;;;;;;;;;;4989377;28;20532;-75
2023/12/16 04:29:14;;;;;;;13.55;3.97;;;;;;;;;;4989461;28;20056;-75
2023/12/16 04:31:40;;;;;;;11.65;3.35;;;6.80;99.90;;;;;;4989796;28;20045;-75
2023/12/16 04:34:06;;;;;;;12.82;3.58;;;;;;;;;;4989837;28;20056;-75
2023/12/16 04:36:32;;;;;;;13.10;3.42;;;;;;;;;;4989944;28;20038;-75
2023/12/16 04:38:59;;;;;;;11.25;2.80;;;;;;;;;;4988984;28;20054;-75
2023/12/16 04:41:25;;;;;;;14.98;3.67;;;;;;;;;;4989138;28;20053;-74
2023/12/16 04:43:53;;;;;;;8.82;3.85;;;;;;;;;;4973100;28;20069;-74
2023/12/16 04:46:22;;;;;;;13.60;3.95;;;;;;;;;;4988906;28;20050;-74
2023/12/16 04:48:48;;;;;;;16.20;3.97;;;;;;;;;;4989033;28;20056;-74
2023/12/16 04:51:15;;;;;;;13.63;4.43;;;;;;;;;;4989218;28;20057;-74
2023/12/16 04:53:41;;;;;;;15.95;4.38;;;;;;;;;;5006448;28;20046;-74
2023/12/16 04:56:07;;;;;;;19.85;3.58;;;;;;;;;;4988698;28;20044;-74
2023/12/16 04:58:33;;;;;;;12.20;3.65;;;;;;;;;;4988507;28;20068;-74
2023/12/16 05:00:59;;;;;;;14.95;3.47;;;;;;;;;;4988585;28;20077;-74
2023/12/16 05:03:26;;;;;;;17.70;3.55;;;;;;;;;;4988323;28;20049;-74
2023/12/16 05:05:52;;;;;;;18.23;3.60;;;;;;;;;;4988506;28;20056;-74
2023/12/16 05:08:20;;;;;;;15.57;3.67;;;;;;;;;;4988424;28;20038;-74
2023/12/16 05:10:47;;;;;;;11.23;3.03;;;;;;;;;;4983496;28;20069;-74
2023/12/16 05:13:14;;;;;;;17.60;5.45;;;;;;;;;;4988179;28;20080;-74
2023/12/16 05:15:43;;;;;;;20.48;4.85;;;;;;;;;;4987769;28;20539;-74
2023/12/16 05:18:09;;;;;;;18.77;3.97;;;;;;;;;;4987975;28;20054;-74
2023/12/16 05:20:36;;;;;;;11.10;3.63;;;;;;;;;;4988185;28;20279;-74
2023/12/16 05:23:02;;;;;;;15.68;3.60;;;;;;;;;;4987797;28;20485;-74
2023/12/16 05:25:29;;;;;;;14.68;3.72;;;;;;;;;;4987470;28;20517;-74
2023/12/16 05:27:55;;;;;;;15.05;4.20;;;;;;;;;;4987829;28;20050;-74
2023/12/16 05:30:21;;;;;;;19.27;4.57;;;;;;;;;;4988086;28;20046;-74
2023/12/16 05:32:47;;;;;;;22.77;4.47;;;;;;;;;;4988152;28;20040;-74
2023/12/16 05:35:14;;;;;;;15.38;4.65;;;;;;;;;;4988104;28;20042;-74
2023/12/16 05:37:40;;;;;;;16.98;4.07;;;;;;;;;;4987751;28;20417;-74
2023/12/16 05:40:06;;;;;;;19.33;4.10;;;;;;;;;;4988045;28;20579;-74
2023/12/16 05:42:32;;;;;;;24.95;4.70;;;;;;;;;;4987624;28;20456;-74
2023/12/16 05:44:58;;;;;;;15.43;3.97;;;;;;;;;;4987882;28;20100;-74
2023/12/16 05:47:24;;;;;;;13.68;4.18;;;;;;;;;;4988487;28;20050;-74
2023/12/16 05:49:50;;;;;;;18.23;5.28;;;;;;;;;;4987527;28;20046;-74
2023/12/16 05:52:16;;;;;;;15.90;4.60;;;;;;;;;;4971891;28;20077;-74
2023/12/16 05:54:43;;;;;;;21.17;4.90;;;;;;;;;;4971676;28;20042;-74
2023/12/16 05:57:09;;;;;;;23.02;6.35;;;;;;;;;;4987903;28;20053;-74
2023/12/16 05:59:35;;;;;;;14.10;4.57;;;;;;;;;;4987921;28;20501;-74
2023/12/16 06:02:01;;;;;;;18.27;5.05;;;;;;;;;;4971543;28;20045;-74
2023/12/16 06:04:27;;;;;;;24.55;6.13;;;;;;;;;;4987527;28;20484;-74
2023/12/16 06:06:53;;;;;;;23.75;5.60;;;;;;;;;;4986893;28;20076;-74
2023/12/16 06:09:19;;;;;;;23.77;5.43;;;;;;;;;;4987603;28;20046;-74
2023/12/16 06:11:45;;;;;;;20.20;6.15;;;;;;;;;;4987590;28;20048;-74
2023/12/16 06:14:12;;;;;;;25.63;6.40;;;;;;;;;;4986480;28;20089;-75
2023/12/16 06:16:38;;;;;;;26.45;6.10;;;;;;;;;;4971203;28;20564;-74
2023/12/16 06:19:04;;;;;;;18.60;5.00;;;;;;;;;;4986886;28;20064;-74
2023/12/16 06:21:30;;;;;;;31.10;5.95;;;;;;;;;;4987399;28;20045;-74
2023/12/16 06:23:58;;;;;;;22.17;5.97;;;;;;;;;;4986452;28;20045;-74
2023/12/16 06:26:24;;;;;;;23.65;5.40;;;;;;;;;;4986512;28;20046;-74
2023/12/16 06:28:50;;;;;;;21.98;5.78;;;;;;;;;;4986374;28;20472;-74
2023/12/16 06:31:16;;;;;;;24.25;5.70;;;;;;;;;;4986349;28;20044;-74
2023/12/16 06:33:42;;;;;;;18.48;5.80;;;;;;;;;;4986678;28;20142;-74
2023/12/16 06:36:09;;;;;;;26.83;6.25;;;;;;;;;;4967077;28;20041;-74
2023/12/16 06:38:35;;;;;;;20.13;5.55;;;;;;;;;;4986217;28;20052;-74
2023/12/16 06:41:01;;;;;;;24.70;6.03;;;;;;;;;;4986176;28;20046;-74
2023/12/16 06:43:27;;;;;;;21.25;6.13;;;;;;;;;;4981208;28;20385;-74
2023/12/16 06:45:54;;;;;;;27.05;6.80;;;;;;;;;;4985903;28;20046;-74
2023/12/16 06:48:20;;;;;;;25.65;6.78;;;;;;;;;;4985287;28;20050;-74
2023/12/16 06:50:46;;;;;;;26.80;7.55;;;;;;;;;;4985101;28;20140;-74
2023/12/16 06:53:13;;;;;;;23.75;6.00;;;;;;;;;;4985570;28;20050;-74
2023/12/16 06:55:38;;;;;;;27.75;6.53;;;;;;;;;;5004100;28;20041;-74
2023/12/16 06:58:05;;;;;;;19.75;6.25;;;;;;;;;;4986333;28;20038;-74
2023/12/16 07:00:31;;;;;;;24.08;7.03;;;;;;;;;;4979628;28;20088;-74
2023/12/16 07:02:57;;;;;;;22.92;6.82;;;;;;;;;;4986010;28;20042;-74
2023/12/16 07:05:23;;;;;;;25.13;6.50;;;;;;;;;;5003888;28;20084;-74
2023/12/16 07:07:49;;;;;;;22.58;6.90;;;;;;;;;;4986490;28;20050;-74
2023/12/16 07:10:15;;;;;;;22.95;6.18;;;;;;;;;;4969604;28;20041;-74
2023/12/16 07:12:41;;;;;;;24.80;6.35;;;;;;;;;;4983049;28;20058;-74
2023/12/16 07:15:07;;;;;;;18.45;6.20;;;;;;;;;;4985381;28;20061;-74
2023/12/16 07:17:34;;;;;;;32.25;8.60;;;;;;;;;;4985331;28;20156;-74
2023/12/16 07:20:00;;;;;;;25.42;7.40;;;;;;;;;;4986052;28;20499;-74
2023/12/16 07:22:29;;;;;;;28.92;6.22;;;;;;;;;;4984764;28;20057;-74
2023/12/16 07:24:55;;;;;;;32.17;5.82;;;;;;;;;;4984134;28;20492;-75
2023/12/16 07:27:22;;;;;;;33.75;6.55;;;;;;;;;;4985307;28;20061;-74
2023/12/16 07:29:48;;;;;;;23.00;7.03;;;;;;;;;;4985025;28;20049;-74
2023/12/16 07:32:14;;;;;;;32.28;6.18;;;;;;;;;;5002873;28;20041;-74
2023/12/16 07:34:40;;;;;;;27.35;6.68;;;;;;;;;;4984704;28;20041;-74
2023/12/16 07:37:06;;;;;;;36.97;6.57;;;;;;;;;;4985174;28;20041;-74
2023/12/16 07:39:32;;;;;;;21.77;6.10;;;;;;;;;;4985340;28;20136;-74
2023/12/16 07:41:58;;;;;;;22.52;7.25;;;;;;;;;;4984667;28;20053;-75
2023/12/16 07:44:27;;;;;;;27.42;7.22;;;;;;;;;;4979591;28;20133;-74
2023/12/16 07:46:53;;;;;;;31.35;6.80;;;;;;;;;;4983434;28;20050;-75
2023/12/16 07:49:22;;;;;;;27.88;6.68;;;;;;;;;;4985194;28;20050;-74
2023/12/16 07:51:48;;;;;;;23.42;6.30;;;;;;;;;;4985142;28;20048;-74
2023/12/16 07:54:14;;;;;;;32.65;6.47;;;;;;;;;;4985394;28;20096;-74
2023/12/16 07:56:41;;;;;;;30.10;6.55;;;;;;;;;;4984205;28;20042;-74
2023/12/16 07:59:07;;;;;;;24.98;7.38;;;;;;;;;;4975739;28;20950;-74
2023/12/16 08:01:33;;;;;;;28.05;6.28;;;;;;;;;;4989208;28;20076;-74
2023/12/16 08:04:00;;;;;;;22.52;6.03;;;;;;;;;;4985358;28;20495;-74
2023/12/16 08:06:26;;;;;;;38.28;7.70;;;;;;;;;;4974534;28;20038;-74
2023/12/16 08:08:52;;;;;;;28.85;7.13;;;;;;;;;;4990681;28;20057;-74
2023/12/16 08:11:18;;;;;;;28.20;6.65;;;;;;;;;;4990405;28;20042;-73
2023/12/16 08:13:44;;;;;;;18.08;5.78;;;;;;;;;;4990094;28;20756;-74
2023/12/16 08:16:11;;;;;;;29.52;6.82;;;;;;;;;;4989653;28;20062;-74
2023/12/16 08:18:37;;;;;;;25.17;6.55;;;;;;;;;;4990369;28;20046;-74
2023/12/16 08:21:03;;;;;;;39.47;6.75;;;;;;;;;;4990280;28;20045;-74
2023/12/16 08:23:29;;;;;;;25.33;6.53;;;;;;;;;;4989783;28;20053;-74
2023/12/16 08:25:55;;;;;;;26.13;6.65;;;;;;;;;;4988996;28;20538;-74
2023/12/16 08:28:23;;;;;;;20.95;5.95;;;;;;;;;;4973443;28;20041;-74
2023/12/16 08:30:50;;;;;;;23.10;7.55;;;;;;;;;;4990465;28;20046;-74
2023/12/16 08:33:16;;;;;;;30.00;6.70;;;;;;;;;;4985748;28;20050;-74
2023/12/16 08:35:43;;;;;;;21.65;6.18;;;;;;;;;;4990888;28;20049;-74
2023/12/16 08:38:09;;;;;;;27.98;5.80;;;;;;;;;;4990203;28;20057;-74
2023/12/16 08:40:35;;;;;;;27.30;6.05;;;;;;;;;;4990201;28;20034;-74
2023/12/16 08:43:01;;;;;;;35.65;7.07;;;;;;;;;;4989495;28;20090;-74
2023/12/16 08:45:28;;;;;;;27.15;5.80;;;;;;;;;;4990602;28;20049;-74
2023/12/16 08:47:54;;;;;;;34.30;6.78;;;;;;;;;;5008369;28;20045;-74
2023/12/16 08:50:22;;;;;;;29.90;7.65;;;;;;;;;;4989753;28;20064;-74
2023/12/16 08:52:48;;;;;;;25.33;7.18;;;;;;;;;;4972650;28;20197;-74
2023/12/16 08:55:15;;;;;;;26.95;6.53;;;;;;;;;;4987925;28;20082;-74
2023/12/16 08:57:41;;;;;;;27.27;6.43;;;;;;;;;;4989611;28;20507;-74
2023/12/16 09:00:08;;;;;;;32.20;7.00;;;;;;;;;;4988579;28;20433;-74
2023/12/16 09:02:34;;;;;;;27.58;6.90;;;;;;;;;;4971045;28;20082;-74
2023/12/16 09:05:01;;;;;;;26.70;7.07;;;;;;;;;;4989147;28;20260;-74
2023/12/16 09:07:27;;;;;;;25.42;7.07;;;;;;;;;;4987550;28;20519;-74
2023/12/16 09:09:53;;;;;;;32.22;6.63;;;;;;;;;;4988205;28;20042;-73
2023/12/16 09:12:19;;;;;;;28.67;6.32;;;;;;;;;;4989234;28;20050;-74
2023/12/16 09:14:45;;;;;;;31.77;7.88;;;;;;;;;;4988925;28;20085;-74
2023/12/16 09:17:11;;;;;;;27.95;6.35;;;;;;;;;;4971735;28;20164;-74
2023/12/16 09:19:37;;;;;;;27.33;6.00;;;;;;;;;;5006488;28;20137;-74
2023/12/16 09:22:04;;;;;;;30.33;7.35;;;;;;;;;;4988411;28;20072;-74
2023/12/16 09:24:30;;;;;;;26.42;8.27;;;;;;;;;;4983648;28;20820;-74
2023/12/16 09:26:56;;;;;;;25.83;6.78;;;;;;;;;;4986544;28;20052;-74
2023/12/16 09:29:22;;;;;;;26.50;7.00;;;;;;;;;;5006644;28;20053;-74
2023/12/16 09:31:48;;;;;;;34.50;6.70;;;;;;;;;;4988630;28;20572;-74
2023/12/16 09:34:14;;;;;;;37.38;8.05;;;;;;;;;;4988294;28;20073;-74
2023/12/16 09:36:40;;;;;;;30.80;5.95;;;;;;;;;;4986853;28;20042;-74
2023/12/16 09:39:09;;;;;;;25.35;7.35;;;;;;;;;;4986915;28;20535;-74
2023/12/16 09:41:41;;;;;;;37.42;7.57;;;;;;;;;;4987890;28;20057;-74
2023/12/16 09:44:08;;;;;;;36.67;7.78;;;;;;;;;;4987753;28;20049;-74
2023/12/16 09:46:35;;;;;;;32.47;9.13;;;;;;;;;;4987272;28;20663;-74
2023/12/16 09:49:01;;;;;;;29.15;7.78;;;;;;;;;;4988363;28;20041;-74
2023/12/16 09:51:27;;;;;;;31.90;8.32;;;;;;;;;;4985049;28;20046;-74
2023/12/16 09:53:53;;;;;;;35.47;8.38;;;;;;;;;;4987939;28;20781;-74
2023/12/16 09:56:20;;;;;;;30.55;7.40;;;;;;;;;;4987095;28;20404;-73
2023/12/16 09:58:46;;;;;;;36.42;7.72;;;;;;;;;;4985159;28;20049;-73
2023/12/16 10:01:13;;;;;;;33.03;7.75;;;;;;;;;;4987295;28;20049;-74
2023/12/16 10:03:39;;;;;;;40.13;7.78;;;;;;;;;;4987441;28;20119;-74
2023/12/16 10:06:10;;;;;;;37.25;7.72;;;;;;;;;;4987456;28;20141;-74
2023/12/16 10:08:36;;;;;;;25.15;6.97;;;;;;;;;;4982806;28;20053;-74
2023/12/16 10:11:03;;;;;;;30.42;7.80;;;;;;;;;;4987020;28;20049;-74
2023/12/16 10:13:30;;;;;;;39.80;7.55;;;;;;;;;;4984711;28;20041;-74
2023/12/16 10:15:56;;;;;;;36.85;8.80;;;;;;;;;;4987824;28;20050;-74
2023/12/16 10:18:22;;;;;;;33.90;9.45;;;;;;;;;;4988008;28;20057;-74
2023/12/16 10:20:48;;;;;;;31.33;9.20;;;;;;;;;;4988147;28;20046;-74
2023/12/16 10:23:14;;;;;;;18.00;7.28;;;;;;;;;;4986832;28;20103;-74
2023/12/16 10:25:41;;;;;;;32.97;8.23;;;;;;;;;;4987299;28;20038;-74
2023/12/16 10:28:07;;;;;;;39.65;9.10;;;;;;;;;;4987357;28;20120;-74
2023/12/16 10:30:33;;;;;;;37.22;10.27;;;;;;;;;;4987542;28;20429;-74
2023/12/16 10:33:03;;;;;;;34.42;8.38;;;;;;;;;;4986044;28;20050;-74
2023/12/16 10:35:30;;;;;;;37.15;8.60;;;;;;;;;;5004747;28;20053;-74
2023/12/16 10:37:56;;;;;;;40.42;8.52;;;;;;;;;;4986480;28;20042;-74
2023/12/16 10:40:23;;;;;;;44.53;10.02;;;;;;;;;;4986771;28;20049;-74
2023/12/16 10:42:49;;;;;;;48.95;9.77;;;;;;;;;;5004837;28;20046;-74
2023/12/16 10:45:15;;;;;;;40.63;12.02;;;;;;;;;;4987604;28;20046;-74
2023/12/16 10:47:42;;;;;;;45.25;11.30;;;;;;;;;;4986522;28;20046;-74
2023/12/16 10:50:09;;;;;;;45.33;12.80;;;;;;;;;;4986206;28;20081;-74
2023/12/16 10:52:45;;;;;;;39.88;11.38;;;;;;;;;;4986813;28;20038;-74
2023/12/16 10:55:19;;;;;;;48.85;12.07;;;;;;;;;;5003644;28;20046;-74
2023/12/16 10:57:50;;;;;;;49.22;12.93;;;;;;;;;;4985046;28;20124;-74
2023/12/16 11:00:23;;;;;;;55.97;13.18;;;;;;;;;;4985303;28;20041;-74
2023/12/16 11:03:04;;;;;;;43.55;15.98;;;8.00;99.90;;;;;;4986849;28;20096;-74
2023/12/16 11:05:34;;;;;;;52.75;14.35;;;;;;;;;;4986533;28;20073;-74
2023/12/16 11:08:01;;;;;;;44.75;14.93;;;;;;;;;;4983744;28;20054;-74
2023/12/16 11:10:29;;;;;;;42.50;14.13;;;;;;;;;;4986186;28;20058;-74
2023/12/16 11:12:56;;;;;;;56.15;18.13;;;;;;;;;;4986302;28;20124;-74
2023/12/16 11:15:23;;;;;;;53.67;16.48;;;;;;;;;;4969299;28;20108;-72
2023/12/16 11:17:52;;;;;;;43.28;14.60;;;;;;;;;;4986350;28;20046;-72
2023/12/16 11:20:18;;;;;;;52.40;16.45;;;;;;;;;;4985324;28;20107;-72
2023/12/16 11:22:53;;;;;;;45.55;15.15;;;;;;;;;;4985902;28;20157;-72
2023/12/16 11:25:20;;;;;;;45.83;16.08;;;;;;;;;;5003603;28;20077;-72
2023/12/16 11:27:49;;;;;;;40.28;15.00;;;;;;;;;;4985533;28;20045;-73
2023/12/16 11:30:16;;;;;;;50.33;17.02;;;;;;;;;;4985397;28;20050;-73
2023/12/16 11:32:44;;;;;;;46.35;15.20;;;;;;;;;;4985677;28;20149;-72
2023/12/16 11:35:10;;;;;;;46.03;16.30;;;;;;;;;;4982407;28;20050;-72
2023/12/16 11:37:37;;;;;;;40.53;15.55;;;;;;;;;;4981023;28;20097;-72
2023/12/16 11:40:04;;;;;;;40.00;15.55;;;;;;;;;;4985790;28;20060;-72
2023/12/16 11:42:46;;;;;;;40.65;15.27;;;;;;;;;;4982995;28;20054;-73
2023/12/16 11:45:32;;;;;;;47.00;16.33;;;;;;;;;;4996489;28;20058;-72
2023/12/16 11:47:58;;;;;;;37.25;15.35;;;;;;;;;;4984950;28;20751;-73
2023/12/16 11:50:25;;;;;;;31.27;13.88;;;;;;;;;;4985811;28;20100;-72
2023/12/16 11:52:51;;;;;;;37.67;14.48;;;;;;;;;;5001983;28;20041;-72
2023/12/16 11:55:19;;;;;;;33.25;14.20;;;;;;;;;;4981503;28;20041;-72
2023/12/16 11:57:48;;;;;;;35.78;14.20;;;;;;;;;;4985566;28;20041;-72
2023/12/16 12:00:16;;;;;;;28.98;13.20;;;;;;;;;;5001311;28;20057;-72
2023/12/16 12:02:42;;;;;;;31.42;12.40;;;;;;;;;;4985695;28;20042;-72
2023/12/16 12:05:14;;;;;;;30.40;11.23;;;;;;;;;;4985286;28;20564;-72
2023/12/16 12:07:40;;;;;;;32.67;10.93;;;;;;;;;;4983444;28;20103;-72
2023/12/16 12:10:06;;;;;;;31.35;10.57;;;;;;;;;;4983277;28;20120;-72
2023/12/16 12:12:32;;;;;;;29.33;10.55;;;;;;;;;;4985542;28;20046;-72
2023/12/16 12:14:58;;;;;;;25.58;9.15;;;;;;;;;;4985471;28;20061;-72
2023/12/16 12:17:26;;;;;;;23.52;9.98;;;;;;;;;;4990718;28;20050;-72
2023/12/16 12:19:52;;;;;;;21.30;9.35;;;;;;;;;;4984933;28;20642;-72
2023/12/16 12:22:21;;;;;;;15.07;8.18;;;;;;;;;;4985766;28;20050;-72
2023/12/16 12:24:47;;;;;;;19.83;9.32;;;;;;;;;;4985370;28;20050;-72
2023/12/16 12:27:14;;;;;;;20.45;9.90;;;;;;;;;;4985622;28;20113;-72
2023/12/16 12:29:59;;;;;;;27.42;9.90;;;;;;;;;;4984978;28;20149;-72
2023/12/16 12:32:26;;;;;;;27.80;10.15;;;9.00;99.90;;;;;;4968235;28;20041;-72
2023/12/16 12:35:13;;;;;;;25.80;9.95;;;;;;;;;;5003193;28;20044;-72
2023/12/16 12:37:40;;;;;;;21.00;9.52;;;;;;;;;;4985597;28;20152;-72
2023/12/16 12:40:16;;;;;;;22.70;10.30;;;;;;;;;;4985043;28;20503;-72
2023/12/16 12:42:53;;;;;;;17.35;9.02;;;;;;;;;;5001283;28;20100;-72
2023/12/16 12:45:35;;;;;;;24.92;10.55;;;;;;;;;;4984099;28;20960;-72
2023/12/16 12:48:15;;;;;;;22.77;9.45;;;;;;;;;;4979295;28;20042;-72
2023/12/16 12:50:42;;;;;;;20.25;8.55;;;8.90;99.90;;;;;;4989163;28;20132;-72
2023/12/16 12:53:16;;;;;;;14.70;8.00;;;;;;;;;;4988797;28;20484;-72
2023/12/16 12:55:43;;;;;;;16.90;8.88;;;;;;;;;;4988917;28;20046;-72
2023/12/16 12:58:09;;;;;;;16.83;7.50;;;;;;;;;;4988848;28;20120;-72
2023/12/16 13:00:36;;;;;;;22.25;9.10;;;;;;;;;;4989899;28;20464;-72
2023/12/16 13:03:02;;;;;;;21.45;8.77;;;;;;;;;;4988911;28;20093;-72
2023/12/16 13:05:28;;;;;;;18.67;9.43;;;;;;;;;;4988937;28;20470;-72
2023/12/16 13:07:54;;;;;;;20.58;9.23;;;;;;;;;;4988844;28;20121;-72
2023/12/16 13:10:20;;;;;;;19.23;8.38;;;;;;;;;;5005169;28;20041;-72
2023/12/16 13:12:46;;;;;;;20.15;9.63;;;;;;;;;;4986310;28;20034;-72
2023/12/16 13:15:12;;;;;;;21.67;10.07;;;;;;;;;;5006153;28;20046;-72
2023/12/16 13:17:38;;;;;;;14.45;8.70;;;;;;;;;;4988441;28;20045;-73
2023/12/16 13:20:04;;;;;;;19.67;9.77;;;;;;;;;;4994308;28;20133;-75
2023/12/16 13:22:34;;;;;;;16.15;8.93;;;;;;;;;;4992524;28;20556;-73
2023/12/16 13:25:00;;;;;;;23.25;10.68;;;;;;;;;;4994666;28;20034;-73
2023/12/16 13:27:26;;;;;;;19.50;11.02;;;;;;;;;;4994840;28;20057;-73
2023/12/16 13:29:53;;;;;;;21.98;9.82;;;;;;;;;;4993576;28;20101;-74
2023/12/16 13:32:19;;;;;;;23.33;10.07;;;;;;;;;;4990863;28;20583;-74
2023/12/16 13:34:45;;;;;;;18.13;10.13;;;;;;;;;;4975598;28;20050;-74
2023/12/16 13:37:11;;;;;;;25.52;10.85;;;;;;;;;;4992806;28;20052;-74
2023/12/16 13:39:37;;;;;;;23.98;10.20;;;;;;;;;;4992691;28;20115;-74
2023/12/16 13:42:04;;;;;;;21.65;9.90;;;;;;;;;;4992485;28;20074;-74
2023/12/16 13:44:30;;;;;;;24.08;10.45;;;;;;;;;;4973410;28;20050;-75
2023/12/16 13:46:56;;;;;;;26.85;11.05;;;;;;;;;;5005521;28;20124;-75
2023/12/16 13:49:22;;;;;;;26.88;11.05;;;;;;;;;;4988123;28;20081;-74
2023/12/16 13:51:48;;;;;;;21.95;9.93;;;;;;;;;;4989683;28;20515;-73
2023/12/16 13:54:14;;;;;;;19.70;11.00;;;;;;;;;;5007535;28;20052;-74
2023/12/16 13:56:40;;;;;;;24.70;10.93;;;;;;;;;;4988281;28;20048;-73
2023/12/16 13:59:06;;;;;;;22.10;11.02;;;;;;;;;;4983801;28;20797;-74
2023/12/16 14:01:32;;;;;;;23.67;13.15;;;;;;;;;;4985427;28;20046;-74
2023/12/16 14:03:58;;;;;;;27.27;13.10;;;;;;;;;;4980982;28;20050;-73
2023/12/16 14:06:24;;;;;;;27.42;12.45;;;;;;;;;;4988252;28;20504;-74
2023/12/16 14:08:50;;;;;;;30.98;14.00;;;;;;;;;;4987848;28;20145;-74
2023/12/16 14:11:16;;;;;;;25.05;13.80;;;;;;;;;;5005058;28;20095;-73
2023/12/16 14:13:42;;;;;;;25.08;14.02;;;;;;;;;;5005573;28;20492;-74
2023/12/16 14:16:07;;;;;;;33.05;16.23;;;9.10;99.90;;;;;;4985336;28;20057;-73
2023/12/16 14:18:33;;;;;;;30.30;16.40;;;;;;;;;;5005414;28;20642;-73
2023/12/16 14:20:59;;;;;;;31.70;15.85;;;;;;;;;;5005575;28;20184;-74
2023/12/16 14:23:25;;;;;;;32.10;15.25;;;;;;;;;;4987636;28;20049;-73